createdAt,value
2022-10-03T00:00:04.071Z,12.96
2022-10-03T00:02:30.574Z,12.98
2022-10-03T00:04:50.722Z,12.99
2022-10-03T00:07:05.287Z,12.98
2022-10-03T00:09:30.234Z,12.97
2022-10-03T00:11:45.922Z,12.97
2022-10-03T00:13:58.838Z,12.95
2022-10-03T00:16:15.525Z,12.96
2022-10-03T00:18:36.306Z,12.96
2022-10-03T00:20:55.686Z,12.98
2022-10-03T00:23:04.376Z,13.00
2022-10-03T00:25:27.058Z,12.99
2022-10-03T00:27:40.223Z,12.99
2022-10-03T00:29:48.621Z,12.98
2022-10-03T00:32:02.050Z,13.00
2022-10-03T00:34:19.176Z,12.99
2022-10-03T00:36:35.241Z,13.00
2022-10-03T00:39:02.653Z,12.99
2022-10-03T00:41:37.783Z,13.00
2022-10-03T00:44:29.728Z,13.00
2022-10-03T00:47:08.717Z,13.00
2022-10-03T00:49:46.444Z,12.96
2022-10-03T00:52:04.896Z,12.94
2022-10-03T00:54:28.081Z,12.94
2022-10-03T00:56:48.979Z,12.94
2022-10-03T00:59:06.066Z,12.95
2022-10-03T01:01:30.362Z,12.93
2022-10-03T01:03:45.387Z,12.96
2022-10-03T01:06:02.645Z,12.94
2022-10-03T01:08:43.487Z,12.94
2022-10-03T01:10:59.082Z,12.92
2022-10-03T01:13:19.283Z,12.91
2022-10-03T01:15:31.624Z,12.91
2022-10-03T01:17:49.513Z,12.89
2022-10-03T01:20:09.086Z,12.86
2022-10-03T01:22:36.545Z,12.82
2022-10-03T01:24:59.859Z,12.75
2022-10-03T01:27:06.193Z,12.66
2022-10-03T01:29:31.411Z,12.59
2022-10-03T01:31:43.926Z,12.55
2022-10-03T01:33:55.457Z,12.51
2022-10-03T01:36:04.709Z,12.50
2022-10-03T01:38:21.986Z,12.50
2022-10-03T01:40:30.963Z,12.48
2022-10-03T01:42:46.463Z,12.45
2022-10-03T01:45:12.093Z,12.44
2022-10-03T01:47:27.420Z,12.44
2022-10-03T01:49:40.199Z,12.45
2022-10-03T01:51:54.234Z,12.42
2022-10-03T01:54:17.335Z,12.41
2022-10-03T01:56:28.945Z,12.41
2022-10-03T01:58:57.040Z,12.39
2022-10-03T02:01:10.842Z,12.38
2022-10-03T02:03:22.886Z,12.39
2022-10-03T02:05:38.473Z,12.39
2022-10-03T02:07:47.177Z,12.35
2022-10-03T02:10:04.373Z,12.33
2022-10-03T02:12:16.161Z,12.32
2022-10-03T02:14:29.584Z,12.31
2022-10-03T02:16:38.267Z,12.27
2022-10-03T02:18:49.317Z,12.26
2022-10-03T02:20:59.974Z,12.28
2022-10-03T02:23:03.940Z,12.28
2022-10-03T02:25:21.822Z,12.30
2022-10-03T02:28:01.892Z,12.31
2022-10-03T02:30:16.020Z,12.32
2022-10-03T02:33:17.107Z,12.35
2022-10-03T02:35:45.005Z,12.36
2022-10-03T02:38:10.239Z,12.40
2022-10-03T02:40:55.905Z,12.41
2022-10-03T02:43:43.076Z,12.44
2022-10-03T02:46:17.030Z,12.47
2022-10-03T02:49:06.787Z,12.49
2022-10-03T02:51:42.942Z,12.47
2022-10-03T02:54:25.236Z,12.46
2022-10-03T02:57:04.006Z,12.47
2022-10-03T02:59:41.919Z,12.47
2022-10-03T03:02:04.207Z,12.47
2022-10-03T03:04:53.148Z,12.46
2022-10-03T03:07:13.801Z,12.46
2022-10-03T03:09:45.164Z,12.46
2022-10-03T03:12:23.738Z,12.45
2022-10-03T03:15:05.868Z,12.45
2022-10-03T03:17:23.563Z,12.44
2022-10-03T03:20:06.190Z,12.41
2022-10-03T03:22:25.557Z,12.37
2022-10-03T03:24:50.971Z,12.31
2022-10-03T03:27:11.062Z,12.26
2022-10-03T03:29:25.898Z,12.20
2022-10-03T03:31:42.529Z,12.15
2022-10-03T03:34:00.128Z,12.08
2022-10-03T03:36:12.288Z,12.02
2022-10-03T03:38:30.373Z,11.98
2022-10-03T03:40:46.568Z,11.98
2022-10-03T03:43:04.986Z,11.99
2022-10-03T03:45:29.666Z,12.00
2022-10-03T03:47:54.707Z,12.05
2022-10-03T03:50:17.267Z,12.10
2022-10-03T03:52:39.622Z,12.13
2022-10-03T03:55:01.948Z,12.15
2022-10-03T03:57:45.590Z,12.18
2022-10-03T04:00:07.635Z,12.18
2022-10-03T04:02:30.333Z,12.17
2022-10-03T04:05:05.189Z,12.16
2022-10-03T04:07:21.998Z,12.13
2022-10-03T04:09:59.891Z,12.09
2022-10-03T04:12:11.279Z,12.09
2022-10-03T04:14:40.739Z,12.07
2022-10-03T04:17:17.473Z,12.06
2022-10-03T04:19:31.041Z,11.98
2022-10-03T04:21:51.229Z,11.91
2022-10-03T04:24:10.245Z,11.91
2022-10-03T04:26:32.474Z,11.89
2022-10-03T04:28:56.685Z,11.87
2022-10-03T04:31:12.307Z,11.82
2022-10-03T04:33:33.688Z,11.81
2022-10-03T04:35:58.497Z,11.80
2022-10-03T04:38:13.618Z,11.78
2022-10-03T04:40:34.324Z,11.75
2022-10-03T04:42:48.916Z,11.73
2022-10-03T04:45:21.009Z,11.65
2022-10-03T04:47:30.058Z,11.62
2022-10-03T04:49:40.389Z,11.63
2022-10-03T04:51:55.707Z,11.63
2022-10-03T04:54:04.741Z,11.54
2022-10-03T04:56:23.001Z,11.54
2022-10-03T04:58:38.157Z,11.56
2022-10-03T05:00:52.988Z,11.61
2022-10-03T05:03:06.555Z,11.63
2022-10-03T05:05:28.489Z,11.64
2022-10-03T05:07:42.516Z,11.64
2022-10-03T05:09:53.545Z,11.68
2022-10-03T05:12:03.913Z,11.72
2022-10-03T05:14:13.897Z,11.74
2022-10-03T05:16:25.143Z,11.77
2022-10-03T05:18:35.708Z,11.79
2022-10-03T05:20:54.718Z,11.80
2022-10-03T05:23:11.507Z,11.81
2022-10-03T05:25:24.068Z,11.83
2022-10-03T05:27:38.223Z,11.83
2022-10-03T05:29:51.449Z,11.82
2022-10-03T05:32:08.068Z,11.81
2022-10-03T05:34:24.766Z,11.78
2022-10-03T05:36:35.503Z,11.79
2022-10-03T05:39:32.965Z,11.80
2022-10-03T05:41:37.176Z,11.80
2022-10-03T05:43:58.729Z,11.82
2022-10-03T05:46:12.481Z,11.87
2022-10-03T05:48:29.462Z,11.90
2022-10-03T05:51:09.155Z,11.91
2022-10-03T05:53:48.947Z,11.90
2022-10-03T05:56:06.431Z,11.90
2022-10-03T05:58:46.704Z,11.83
2022-10-03T06:01:13.852Z,11.79
2022-10-03T06:03:46.688Z,11.82
2022-10-03T06:06:03.220Z,11.88
2022-10-03T06:08:28.367Z,11.92
2022-10-03T06:11:00.384Z,11.99
2022-10-03T06:13:14.971Z,12.06
2022-10-03T06:15:40.975Z,12.11
2022-10-03T06:18:03.968Z,12.16
2022-10-03T06:20:29.298Z,12.21
2022-10-03T06:23:05.622Z,12.25
2022-10-03T06:25:37.361Z,12.30
2022-10-03T06:28:11.900Z,12.36
2022-10-03T06:30:24.957Z,12.40
2022-10-03T06:33:10.154Z,12.43
2022-10-03T06:35:43.184Z,12.47
2022-10-03T06:38:33.191Z,12.49
2022-10-03T06:41:05.325Z,12.52
2022-10-03T06:43:44.238Z,12.53
2022-10-03T06:46:24.831Z,12.55
2022-10-03T06:49:01.245Z,12.56
2022-10-03T06:51:30.738Z,12.58
2022-10-03T06:54:07.299Z,12.56
2022-10-03T06:56:38.547Z,12.58
2022-10-03T06:59:01.837Z,12.57
2022-10-03T07:01:29.437Z,12.58
2022-10-03T07:04:06.540Z,12.59
2022-10-03T07:06:24.714Z,12.62
2022-10-03T07:09:18.577Z,12.62
2022-10-03T07:11:39.307Z,12.62
2022-10-03T07:14:28.804Z,12.62
2022-10-03T07:17:10.279Z,12.63
2022-10-03T07:19:30.032Z,12.61
2022-10-03T07:22:10.939Z,12.61
2022-10-03T07:24:52.541Z,12.61
2022-10-03T07:27:19.883Z,12.59
2022-10-03T07:29:31.652Z,12.57
2022-10-03T07:31:51.594Z,12.56
2022-10-03T07:34:28.550Z,12.57
2022-10-03T07:37:08.668Z,12.57
2022-10-03T07:39:35.834Z,12.59
2022-10-03T07:42:10.257Z,12.62
2022-10-03T07:44:53.638Z,12.65
2022-10-03T07:47:29.948Z,12.68
2022-10-03T07:50:12.008Z,12.67
2022-10-03T07:52:54.811Z,12.67
2022-10-03T07:55:25.071Z,12.70
2022-10-03T07:57:55.010Z,12.74
2022-10-03T08:00:17.748Z,12.78
2022-10-03T08:02:45.115Z,12.82
2022-10-03T08:05:19.067Z,12.84
2022-10-03T08:07:50.167Z,12.85
2022-10-03T08:10:11.012Z,12.88
2022-10-03T08:12:59.314Z,12.91
2022-10-03T08:15:14.959Z,12.94
2022-10-03T08:17:55.791Z,12.97
2022-10-03T08:20:24.167Z,13.01
2022-10-03T08:22:44.300Z,13.01
2022-10-03T08:25:11.531Z,13.02
2022-10-03T08:27:32.804Z,13.06
2022-10-03T08:30:07.471Z,13.05
2022-10-03T08:32:36.061Z,13.08
2022-10-03T08:35:22.319Z,13.12
2022-10-03T08:38:04.405Z,13.17
2022-10-03T08:41:10.662Z,13.20
2022-10-03T08:44:06.206Z,13.23
2022-10-03T08:46:23.367Z,13.22
2022-10-03T08:49:03.371Z,13.26
2022-10-03T08:51:41.060Z,13.30
2022-10-03T08:54:15.159Z,13.35
2022-10-03T08:56:23.038Z,13.38
2022-10-03T08:59:05.653Z,13.43
2022-10-03T09:01:33.880Z,13.48
2022-10-03T09:04:10.140Z,13.53
2022-10-03T09:07:05.470Z,13.53
2022-10-03T09:09:37.452Z,13.54
2022-10-03T09:12:07.583Z,13.56
2022-10-03T09:14:44.167Z,13.58
2022-10-03T09:17:07.518Z,13.60
2022-10-03T09:19:52.497Z,13.61
2022-10-03T09:22:22.107Z,13.61
2022-10-03T09:25:05.365Z,13.60
2022-10-03T09:27:24.426Z,13.61
2022-10-03T09:29:48.180Z,13.61
2022-10-03T09:32:48.722Z,13.61
2022-10-03T09:35:29.261Z,13.59
2022-10-03T09:38:05.295Z,13.62
2022-10-03T09:40:59.301Z,13.63
2022-10-03T09:43:36.963Z,13.65
2022-10-03T09:46:09.175Z,13.66
2022-10-03T09:48:43.441Z,13.71
2022-10-03T09:51:15.010Z,13.74
2022-10-03T09:53:55.604Z,13.78
2022-10-03T09:56:35.385Z,13.86
2022-10-03T09:59:08.054Z,13.91
2022-10-03T10:01:25.679Z,13.94
2022-10-03T10:04:43.757Z,13.93
2022-10-03T10:07:42.409Z,13.83
2022-10-03T10:10:07.072Z,13.79
2022-10-03T10:12:48.612Z,13.75
2022-10-03T10:15:15.711Z,13.75
2022-10-03T10:18:06.727Z,13.75
2022-10-03T10:20:26.372Z,13.77
2022-10-03T10:23:08.274Z,13.78
2022-10-03T10:25:35.221Z,13.82
2022-10-03T10:28:04.415Z,13.84
2022-10-03T10:30:22.586Z,13.90
2022-10-03T10:33:07.125Z,13.94
2022-10-03T10:35:46.551Z,13.99
2022-10-03T10:38:10.362Z,14.01
2022-10-03T10:40:41.041Z,14.02
2022-10-03T10:43:15.834Z,14.03
2022-10-03T10:45:45.776Z,14.07
2022-10-03T10:48:36.899Z,14.11
2022-10-03T10:51:16.045Z,14.16
2022-10-03T10:54:02.014Z,14.28
2022-10-03T10:56:44.785Z,14.40
2022-10-03T10:59:27.252Z,14.53
2022-10-03T11:02:02.400Z,14.64
2022-10-03T11:04:42.995Z,14.72
2022-10-03T11:07:32.511Z,14.80
2022-10-03T11:10:32.629Z,14.84
2022-10-03T11:13:13.688Z,14.88
2022-10-03T11:16:00.414Z,14.94
2022-10-03T11:19:03.303Z,14.99
2022-10-03T11:21:48.588Z,15.06
2022-10-03T11:24:28.448Z,15.10
2022-10-03T11:27:12.896Z,15.15
2022-10-03T11:30:01.113Z,15.19
2022-10-03T11:32:37.770Z,15.22
2022-10-03T11:35:13.875Z,15.31
2022-10-03T11:37:31.141Z,15.33
2022-10-03T11:39:45.679Z,15.36
2022-10-03T11:41:55.066Z,15.41
2022-10-03T11:44:15.404Z,15.43
2022-10-03T11:46:31.183Z,15.45
2022-10-03T11:48:41.353Z,15.49
2022-10-03T11:50:51.404Z,15.50
2022-10-03T11:53:18.125Z,15.52
2022-10-03T11:55:33.209Z,15.53
2022-10-03T11:57:40.974Z,15.54
2022-10-03T12:00:04.516Z,15.54
2022-10-03T12:02:22.752Z,15.53
2022-10-03T12:04:40.787Z,15.54
2022-10-03T12:07:19.729Z,15.59
2022-10-03T12:09:35.799Z,15.61
2022-10-03T12:11:47.723Z,15.64
2022-10-03T12:14:14.133Z,15.67
2022-10-03T12:16:27.943Z,15.72
2022-10-03T12:18:50.927Z,15.76
2022-10-03T12:21:07.470Z,15.77
2022-10-03T12:23:30.121Z,15.79
2022-10-03T12:25:39.129Z,15.79
2022-10-03T12:27:50.647Z,15.79
2022-10-03T12:29:58.969Z,15.79
2022-10-03T12:32:18.602Z,15.77
2022-10-03T12:34:37.373Z,15.75
2022-10-03T12:36:53.425Z,15.75
2022-10-03T12:39:20.504Z,15.76
2022-10-03T12:41:44.359Z,15.81
2022-10-03T12:44:05.602Z,15.86
2022-10-03T12:46:17.202Z,15.90
2022-10-03T12:48:35.365Z,15.94
2022-10-03T12:50:48.865Z,15.97
2022-10-03T12:53:09.983Z,15.97
2022-10-03T12:55:29.197Z,15.99
2022-10-03T12:57:54.307Z,15.99
2022-10-03T13:00:07.258Z,16.01
2022-10-03T13:02:26.127Z,16.01
2022-10-03T13:04:42.413Z,16.00
2022-10-03T13:07:05.273Z,16.00
2022-10-03T13:09:27.824Z,15.99
2022-10-03T13:11:42.160Z,15.99
2022-10-03T13:14:06.540Z,16.00
2022-10-03T13:16:27.268Z,16.03
2022-10-03T13:18:52.503Z,16.07
2022-10-03T13:21:26.764Z,16.10
2022-10-03T13:23:44.267Z,16.16
2022-10-03T13:26:00.304Z,16.19
2022-10-03T13:28:12.564Z,16.26
2022-10-03T13:30:23.079Z,16.37
2022-10-03T13:32:34.356Z,16.44
2022-10-03T13:35:25.627Z,16.47
2022-10-03T13:37:36.934Z,16.53
2022-10-03T13:39:49.203Z,16.59
2022-10-03T13:42:10.708Z,16.64
2022-10-03T13:44:18.993Z,16.65
2022-10-03T13:46:32.557Z,16.66
2022-10-03T13:48:37.033Z,16.67
2022-10-03T13:50:48.307Z,16.71
2022-10-03T13:52:57.560Z,16.77
2022-10-03T13:55:29.476Z,16.81
2022-10-03T13:57:37.141Z,16.82
2022-10-03T13:59:50.009Z,16.83
2022-10-03T14:02:06.125Z,16.81
2022-10-03T14:04:48.294Z,16.82
2022-10-03T14:06:57.398Z,16.83
2022-10-03T14:09:16.844Z,16.86
2022-10-03T14:11:27.163Z,16.88
2022-10-03T14:13:37.870Z,16.87
2022-10-03T14:15:50.229Z,16.87
2022-10-03T14:18:06.932Z,16.86
2022-10-03T14:20:26.070Z,16.83
2022-10-03T14:22:40.245Z,16.79
2022-10-03T14:25:11.575Z,16.72
2022-10-03T14:27:37.105Z,16.70
2022-10-03T14:29:53.436Z,16.68
2022-10-03T14:32:03.177Z,16.69
2022-10-03T14:34:23.680Z,16.71
2022-10-03T14:36:41.006Z,16.74
2022-10-03T14:39:02.457Z,16.74
2022-10-03T14:41:13.398Z,16.75
2022-10-03T14:43:37.563Z,16.77
2022-10-03T14:45:45.403Z,16.75
2022-10-03T14:47:52.067Z,16.76
2022-10-03T14:50:00.810Z,16.73
2022-10-03T14:52:09.122Z,16.72
2022-10-03T14:54:23.069Z,16.67
2022-10-03T14:56:28.080Z,16.67
2022-10-03T14:58:36.282Z,16.68
2022-10-03T15:00:45.472Z,16.69
2022-10-03T15:02:49.759Z,16.70
2022-10-03T15:04:56.837Z,16.68
2022-10-03T15:07:03.123Z,16.65
2022-10-03T15:09:12.376Z,16.61
2022-10-03T15:11:18.843Z,16.56
2022-10-03T15:13:26.197Z,16.52
2022-10-03T15:15:33.488Z,16.51
2022-10-03T15:17:45.309Z,16.51
2022-10-03T15:19:55.266Z,16.51
2022-10-03T15:22:07.814Z,16.54
2022-10-03T15:24:15.011Z,16.61
2022-10-03T15:26:24.935Z,16.64
2022-10-03T15:28:32.027Z,16.66
2022-10-03T15:30:39.018Z,16.63
2022-10-03T15:32:47.445Z,16.62
2022-10-03T15:34:55.055Z,16.63
2022-10-03T15:37:04.469Z,16.62
2022-10-03T15:39:21.346Z,16.59
2022-10-03T15:41:30.667Z,16.55
2022-10-03T15:43:38.320Z,16.51
2022-10-03T15:45:43.160Z,16.46
2022-10-03T15:47:50.229Z,16.38
2022-10-03T15:49:57.306Z,16.34
2022-10-03T15:52:12.387Z,16.29
2022-10-03T15:54:23.341Z,16.27
2022-10-03T15:56:31.682Z,16.24
2022-10-03T15:58:37.552Z,16.26
2022-10-03T16:00:42.998Z,16.25
2022-10-03T16:02:53.066Z,16.24
2022-10-03T16:04:58.003Z,16.22
2022-10-03T16:07:04.584Z,16.20
2022-10-03T16:09:17.699Z,16.17
2022-10-03T16:11:23.873Z,16.15
2022-10-03T16:13:37.342Z,16.13
2022-10-03T16:16:01.596Z,16.08
2022-10-03T16:18:11.320Z,16.04
2022-10-03T16:20:22.673Z,16.01
2022-10-03T16:22:32.589Z,15.99
2022-10-03T16:24:43.202Z,15.97
2022-10-03T16:26:54.100Z,15.97
2022-10-03T16:29:11.846Z,15.96
2022-10-03T16:31:22.504Z,15.96
2022-10-03T16:33:31.264Z,15.96
2022-10-03T16:35:38.593Z,15.96
2022-10-03T16:37:42.668Z,15.94
2022-10-03T16:39:55.721Z,15.94
2022-10-03T16:42:11.067Z,15.94
2022-10-03T16:44:22.302Z,15.90
2022-10-03T16:46:28.317Z,15.89
2022-10-03T16:48:53.268Z,15.89
2022-10-03T16:50:58.000Z,15.88
2022-10-03T16:53:01.888Z,15.87
2022-10-03T16:55:09.170Z,15.85
2022-10-03T16:57:20.702Z,15.84
2022-10-03T16:59:26.309Z,15.82
2022-10-03T17:01:34.337Z,15.81
2022-10-03T17:03:42.461Z,15.79
2022-10-03T17:05:48.683Z,15.78
2022-10-03T17:07:55.271Z,15.75
2022-10-03T17:10:00.708Z,15.73
2022-10-03T17:12:08.909Z,15.71
2022-10-03T17:14:20.819Z,15.69
2022-10-03T17:16:34.638Z,15.68
2022-10-03T17:18:44.824Z,15.66
2022-10-03T17:20:51.101Z,15.64
2022-10-03T17:22:59.851Z,15.61
2022-10-03T17:25:06.932Z,15.56
2022-10-03T17:27:20.304Z,15.56
2022-10-03T17:29:32.120Z,15.54
2022-10-03T17:31:41.472Z,15.54
2022-10-03T17:33:51.941Z,15.53
2022-10-03T17:36:08.289Z,15.52
2022-10-03T17:38:50.207Z,15.51
2022-10-03T17:41:13.445Z,15.49
2022-10-03T17:43:27.909Z,15.49
2022-10-03T17:45:50.470Z,15.46
2022-10-03T17:47:58.955Z,15.45
2022-10-03T17:50:09.771Z,15.42
2022-10-03T17:52:19.278Z,15.41
2022-10-03T17:54:28.640Z,15.39
2022-10-03T17:56:34.861Z,15.38
2022-10-03T17:58:45.603Z,15.38
2022-10-03T18:01:05.497Z,15.35
2022-10-03T18:03:14.930Z,15.34
2022-10-03T18:05:22.513Z,15.32
2022-10-03T18:07:29.907Z,15.31
2022-10-03T18:09:40.920Z,15.29
2022-10-03T18:11:47.779Z,15.29
2022-10-03T18:13:56.249Z,15.27
2022-10-03T18:16:21.092Z,15.25
2022-10-03T18:18:54.089Z,15.23
2022-10-03T18:21:05.548Z,15.23
2022-10-03T18:23:36.738Z,15.22
2022-10-03T18:26:19.119Z,15.21
2022-10-03T18:28:27.793Z,15.20
2022-10-03T18:30:36.274Z,15.20
2022-10-03T18:32:42.913Z,15.21
2022-10-03T18:34:50.737Z,15.20
2022-10-03T18:36:57.819Z,15.20
2022-10-03T18:39:04.673Z,15.19
2022-10-03T18:41:10.469Z,15.18
2022-10-03T18:43:31.608Z,15.18
2022-10-03T18:45:44.474Z,15.18
2022-10-03T18:47:56.513Z,15.18
2022-10-03T18:50:10.698Z,15.17
2022-10-03T18:52:22.990Z,15.17
2022-10-03T18:54:37.942Z,15.16
2022-10-03T18:56:43.474Z,15.16
2022-10-03T18:58:58.551Z,15.16
2022-10-03T19:01:07.303Z,15.16
2022-10-03T19:03:16.897Z,15.16
2022-10-03T19:05:24.892Z,15.18
2022-10-03T19:07:32.736Z,15.19
2022-10-03T19:09:42.744Z,15.18
2022-10-03T19:11:54.473Z,15.18
2022-10-03T19:14:10.339Z,15.18
2022-10-03T19:16:21.623Z,15.17
2022-10-03T19:18:33.893Z,15.16
2022-10-03T19:20:41.746Z,15.14
2022-10-03T19:22:56.148Z,15.14
2022-10-03T19:25:04.473Z,15.13
2022-10-03T19:27:13.984Z,15.11
2022-10-03T19:29:24.030Z,15.11
2022-10-03T19:31:33.127Z,15.12
2022-10-03T19:33:45.264Z,15.11
2022-10-03T19:35:51.235Z,15.11
2022-10-03T19:37:57.552Z,15.10
2022-10-03T19:40:01.424Z,15.08
2022-10-03T19:42:27.876Z,15.08
2022-10-03T19:44:32.865Z,15.07
2022-10-03T19:46:58.282Z,15.05
2022-10-03T19:49:25.453Z,15.05
2022-10-03T19:51:30.227Z,15.06
2022-10-03T19:53:34.233Z,15.08
2022-10-03T19:55:39.776Z,15.07
2022-10-03T19:57:47.176Z,15.08
2022-10-03T19:59:54.449Z,15.08
2022-10-03T20:01:58.116Z,15.10
2022-10-03T20:04:02.677Z,15.10
2022-10-03T20:06:16.211Z,15.13
2022-10-03T20:08:25.768Z,15.13
2022-10-03T20:10:42.360Z,15.14
2022-10-03T20:12:51.394Z,15.13
2022-10-03T20:14:55.606Z,15.15
2022-10-03T20:17:02.533Z,15.18
2022-10-03T20:19:10.402Z,15.19
2022-10-03T20:21:21.089Z,15.22
2022-10-03T20:23:26.905Z,15.22
2022-10-03T20:25:42.068Z,15.22
2022-10-03T20:27:50.629Z,15.23
2022-10-03T20:30:06.693Z,15.21
2022-10-03T20:32:17.974Z,15.22
2022-10-03T20:34:31.224Z,15.21
2022-10-03T20:36:42.715Z,15.19
2022-10-03T20:39:02.382Z,15.19
2022-10-03T20:41:11.411Z,15.18
2022-10-03T20:43:41.682Z,15.17
2022-10-03T20:45:58.460Z,15.18
2022-10-03T20:48:05.893Z,15.19
2022-10-03T20:50:17.347Z,15.18
2022-10-03T20:52:25.874Z,15.16
2022-10-03T20:54:37.392Z,15.17
2022-10-03T20:56:54.561Z,15.18
2022-10-03T20:59:00.982Z,15.18
2022-10-03T21:01:10.768Z,15.17
2022-10-03T21:03:23.037Z,15.16
2022-10-03T21:05:30.960Z,15.16
2022-10-03T21:07:42.939Z,15.17
2022-10-03T21:09:51.155Z,15.14
2022-10-03T21:11:56.577Z,15.15
2022-10-03T21:14:06.146Z,15.14
2022-10-03T21:16:21.020Z,15.15
2022-10-03T21:18:27.510Z,15.16
2022-10-03T21:20:37.982Z,15.16
2022-10-03T21:22:45.164Z,15.16
2022-10-03T21:24:56.188Z,15.17
2022-10-03T21:27:08.206Z,15.18
2022-10-03T21:29:30.859Z,15.19
2022-10-03T21:31:40.202Z,15.20
2022-10-03T21:33:53.051Z,15.21
2022-10-03T21:36:03.923Z,15.21
2022-10-03T21:38:20.392Z,15.20
2022-10-03T21:40:51.065Z,15.22
2022-10-03T21:43:04.708Z,15.24
2022-10-03T21:45:22.597Z,15.24
2022-10-03T21:47:45.312Z,15.24
2022-10-03T21:49:57.505Z,15.21
2022-10-03T21:52:19.688Z,15.20
2022-10-03T21:54:38.249Z,15.19
2022-10-03T21:56:58.738Z,15.19
2022-10-03T21:59:29.164Z,15.21
2022-10-03T22:01:40.326Z,15.22
2022-10-03T22:03:51.824Z,15.21
2022-10-03T22:06:01.989Z,15.21
2022-10-03T22:08:15.163Z,15.25
2022-10-03T22:10:21.838Z,15.23
2022-10-03T22:12:29.925Z,15.27
2022-10-03T22:14:43.477Z,15.25
2022-10-03T22:16:56.599Z,15.23
2022-10-03T22:19:21.362Z,15.24
2022-10-03T22:21:28.052Z,15.23
2022-10-03T22:23:43.769Z,15.27
2022-10-03T22:26:04.247Z,15.28
2022-10-03T22:28:19.762Z,15.29
2022-10-03T22:30:24.156Z,15.29
2022-10-03T22:32:35.445Z,15.30
2022-10-03T22:34:47.053Z,15.30
2022-10-03T22:36:51.409Z,15.33
2022-10-03T22:38:55.226Z,15.35
2022-10-03T22:41:04.559Z,15.37
2022-10-03T22:43:09.551Z,15.38
2022-10-03T22:45:16.519Z,15.39
2022-10-03T22:47:24.035Z,15.40
2022-10-03T22:49:33.631Z,15.40
2022-10-03T22:51:41.464Z,15.40
2022-10-03T22:53:49.552Z,15.40
2022-10-03T22:55:59.955Z,15.41
2022-10-03T22:58:08.947Z,15.42
2022-10-03T23:00:16.601Z,15.43
2022-10-03T23:02:27.506Z,15.45
2022-10-03T23:04:35.957Z,15.46
2022-10-03T23:07:07.686Z,15.46
2022-10-03T23:09:20.666Z,15.47
2022-10-03T23:11:27.541Z,15.47
2022-10-03T23:13:39.117Z,15.46
2022-10-03T23:15:46.474Z,15.47
2022-10-03T23:18:15.238Z,15.46
2022-10-03T23:20:42.479Z,15.47
2022-10-03T23:22:52.429Z,15.47
2022-10-03T23:25:02.552Z,15.49
2022-10-03T23:27:56.953Z,15.50
2022-10-03T23:30:19.112Z,15.50
2022-10-03T23:32:55.825Z,15.51
2022-10-03T23:35:13.749Z,15.51
2022-10-03T23:37:40.792Z,15.50
2022-10-03T23:39:46.244Z,15.50
2022-10-03T23:42:01.224Z,15.50
2022-10-03T23:44:21.654Z,15.50
2022-10-03T23:46:28.351Z,15.50
2022-10-03T23:48:44.238Z,15.51
2022-10-03T23:50:51.456Z,15.50
2022-10-03T23:52:58.021Z,15.51
2022-10-03T23:55:06.875Z,15.50
2022-10-03T23:57:11.218Z,15.51
2022-10-03T23:59:24.353Z,15.52
